AirNav   Jet Aviation Boston
 
 644 users online  

S79 Green Sea Airport
Green Sea, South Carolina, USA

GOING TO GREEN SEA?


FAA INFORMATION EFFECTIVE 29 MARCH 2018

Location

FAA Identifier: S79
Lat/Long: 34-11-08.0000N / 079-01-14.1150W
34-11.133333N / 079-01.235250W
34.1855556 / -79.0205875
(estimated)
Elevation: 95 ft. / 29 m (estimated)
Variation: 07W (1990)
From city: 4 miles NW of GREEN SEA, SC
Time zone: UTC -4 (UTC -5 during Standard Time)
Zip code: 29581

Airport Operations

Airport use: Open to the public
Activation date: 04/1993
Control tower: no
ARTCC: JACKSONVILLE CENTER
FSS: ANDERSON FLIGHT SERVICE STATION
NOTAMs facility: AND (NOTAM-D service available)
Attendance: UNATNDD
Wind indicator: yes
Segmented circle: no

Airport Communications

CTAF: 122.9
WX AWOS-3 at MAO (16 nm W): 119.875 (843-423-4231)
WX AWOS-3 at CPC (16 nm E): 118.375 (910-642-7508)

Nearby radio navigation aids

VOR radial/distance  VOR name  Freq  Var
CREr330/26.7GRAND STRAND VORTAC117.6003W
FLOr098/31.7FLORENCE VORTAC115.2003W

 
NDB name  Hdg/Dist  Freq  Var  ID
CAMP258/16.222707WCPC -.-. .--. -.-.
HORRY022/22.437008WHYW .... -.-- .--
DILLON142/23.427409WDLC -.. .-.. -.-.
ROBESON184/25.835908WRSY .-. ... -.--
ELIZABETHTOWN239/32.439808WTGQ - --. --.-

Airport Services

Parking: tiedowns

Runway Information

Runway 9/27

Dimensions: 3600 x 100 ft. / 1097 x 30 m
Surface: turf, in excellent condition
Runway edge markings: RY EDGE MKD BY WHITE CONES.
RUNWAY 9  RUNWAY 27
Traffic pattern: leftleft
Obstructions: 80 ft. tree, 541 ft. from runway, 150 ft. left of centerline, 6:1 slope to clear115 ft. tree, 1844 ft. from runway, 89 ft. right of centerline, 16:1 slope to clear

Airport Ownership and Management from official FAA records

Ownership: Privately-owned
Owner: EARL SHAW
PO BOX 123
LONG, SC 29568
Phone 843-756-1497
Manager: EARL SHAW
PO BOX 123
LONG, SC 29568

Airport Operational Statistics

Aircraft operations: avg 21/month *
100% transient general aviation
* for 12-month period ending 28 November 2014

Additional Remarks

REMOTE CONTROLLED ACFT INVOF ARPT.

Instrument Procedures

There are no published instrument procedures at S79.

Some nearby airports with instrument procedures:

5J9 - Twin City Airport (10 nm SE)
KMAO - Marion County Airport (16 nm W)
KCPC - Columbus County Municipal Airport (16 nm E)
KHYW - Conway-Horry County Airport (22 nm S)
KDLC - Dillon County Airport (23 nm NW)
 
Loc | Ops | Rwys | IFR | FBO | Links
Com | Nav | Svcs | Stats | Notes

AirNav Hotels Sweepstakes
 
Area around S79 (Green Sea Airport)
 
Road maps at: MapQuest Bing Google
 
Aerial photo
WARNING: Photo may not be current or correct
Aerial photo of S79 (Green Sea Airport)
Photo taken 29-Aug-2010
looking west.

Do you have a better or more recent aerial photo of Green Sea Airport that you would like to share? If so, please send us your photo.

 
Sectional chart

 
Airport distance calculator
Flying to Green Sea Airport? Find the distance to fly.

From to S79

Sunrise and sunset
Times for 26-Apr-2018
 Local
(UTC-4)
 Zulu
(UTC)
Morning civil twilight06:0710:07
Sunrise06:3310:33
Sunset19:5523:55
Evening civil twilight20:2100:21

Current date and time
Zulu (UTC)  26-Apr-2018 04:00:23
Local (UTC-4)  26-Apr-2018 00:00:23
 
METAR
KMAO 
16nm W 
260355Z AUTO 00000KT 10SM BKN055 OVC065 16/15 A2984 RMK AO2
KCPC 
16nm E 
260335Z AUTO 00000KT 10SM BKN060 BKN110 15/15 A2983 RMK AO2 T01540145
KHYW 
22nm S 
260335Z AUTO 00000KT 7SM SCT055 SCT065 SCT080 15/15 A2984 RMK AO2
KLBT 
25nm N 
260354Z AUTO 00000KT 10SM FEW070 13/13 A2982 RMK AO2 SLP097 T01280128
KCRE 
27nm SE 
260353Z AUTO 00000KT 10SM FEW055 16/15 A2983 RMK AO1 SLP102 T01610150
TAF
KLBT 
25nm N 
251720Z 2518/2618 27010G18KT P6SM BKN040 BKN100 FM260200 VRB04KT P6SM SCT060 SCT100 FM261500 11005KT P6SM BKN050
KCRE 
27nm SE 
251720Z 2518/2618 20014G21KT P6SM SCT040 BKN060 FM252300 24008KT P6SM SCT050 BKN100 FM260500 VRB04KT P6SM SCT060 FM261500 12008KT P6SM SCT060
NOTAMs
Click for the latest NOTAMs
NOTAMs are issued by the DoD/FAA and will open in a separate window not controlled by AirNav.

 

 
 

Would you like to see your business listed on this page?

 If your business provides an interesting product or service to pilots, flight crews, aircraft, or users of the Green Sea Airport, you should consider listing it here.  To start the listing process, click on the button below
 
Add a business
 

Other Pages about Green Sea Airport

Update a link
 
Copyright © AirNav, LLC. All rights reserved. Privacy Policy  Contact